createdAt,value
2023-05-22T00:00:40.074Z,12.72
2023-05-22T00:01:57.195Z,12.71
2023-05-22T00:03:00.691Z,12.69
2023-05-22T00:04:04.543Z,12.68
2023-05-22T00:05:07.644Z,12.68
2023-05-22T00:06:12.033Z,12.66
2023-05-22T00:07:14.825Z,12.64
2023-05-22T00:08:17.581Z,12.64
2023-05-22T00:09:20.582Z,12.62
2023-05-22T00:10:23.388Z,12.60
2023-05-22T00:11:26.373Z,12.58
2023-05-22T00:12:29.311Z,12.57
2023-05-22T00:13:32.092Z,12.55
2023-05-22T00:14:34.861Z,12.53
2023-05-22T00:15:37.626Z,12.52
2023-05-22T00:16:41.302Z,12.50
2023-05-22T00:17:44.535Z,12.48
2023-05-22T00:18:47.564Z,12.46
2023-05-22T00:19:51.550Z,12.45
2023-05-22T00:20:54.338Z,12.43
2023-05-22T00:21:57.314Z,12.41
2023-05-22T00:23:01.257Z,12.40
2023-05-22T00:24:04.461Z,12.44
2023-05-22T00:25:07.534Z,12.55
2023-05-22T00:26:10.391Z,12.68
2023-05-22T00:27:13.242Z,12.81
2023-05-22T00:28:16.074Z,12.93
2023-05-22T00:29:18.852Z,13.05
2023-05-22T00:30:21.579Z,13.15
2023-05-22T00:31:24.315Z,13.24
2023-05-22T00:32:27.266Z,13.32
2023-05-22T00:33:30.186Z,13.39
2023-05-22T00:34:33.105Z,13.44
2023-05-22T00:35:36.072Z,13.51
2023-05-22T00:36:38.829Z,13.56
2023-05-22T00:37:41.671Z,13.61
2023-05-22T00:38:44.657Z,13.67
2023-05-22T00:39:47.632Z,13.71
2023-05-22T00:40:50.406Z,13.76
2023-05-22T00:41:53.088Z,13.80
2023-05-22T00:42:55.971Z,13.83
2023-05-22T00:43:58.659Z,13.87
2023-05-22T00:45:01.409Z,13.91
2023-05-22T00:46:04.218Z,13.94
2023-05-22T00:47:08.122Z,13.97
2023-05-22T00:48:12.336Z,14.00
2023-05-22T00:49:15.066Z,14.03
2023-05-22T00:50:19.068Z,14.06
2023-05-22T00:51:22.276Z,14.08
2023-05-22T00:52:25.513Z,14.11
2023-05-22T00:53:28.693Z,14.13
2023-05-22T00:54:31.986Z,14.15
2023-05-22T00:55:34.952Z,14.17
2023-05-22T00:56:37.769Z,14.19
2023-05-22T00:57:42.033Z,14.21
2023-05-22T00:58:45.241Z,14.23
2023-05-22T00:59:48.617Z,14.24
2023-05-22T01:00:51.482Z,14.27
2023-05-22T01:01:54.980Z,14.28
2023-05-22T01:02:58.004Z,14.29
2023-05-22T01:04:02.123Z,14.30
2023-05-22T01:05:07.035Z,14.30
2023-05-22T01:06:10.075Z,14.30
2023-05-22T01:07:13.186Z,14.31
2023-05-22T01:08:15.901Z,14.32
2023-05-22T01:09:18.818Z,14.33
2023-05-22T01:10:22.908Z,14.34
2023-05-22T01:11:28.343Z,14.35
2023-05-22T01:12:34.535Z,14.36
2023-05-22T01:13:58.845Z,14.35
2023-05-22T01:15:02.928Z,14.35
2023-05-22T01:16:19.485Z,14.36
2023-05-22T01:17:28.782Z,14.35
2023-05-22T01:18:39.689Z,14.34
2023-05-22T01:19:42.405Z,14.34
2023-05-22T01:21:06.566Z,14.33
2023-05-22T01:22:28.244Z,14.33
2023-05-22T01:23:49.552Z,14.32
2023-05-22T01:25:04.140Z,14.31
2023-05-22T01:26:20.848Z,14.31
2023-05-22T01:27:47.350Z,14.31
2023-05-22T01:29:08.697Z,14.32
2023-05-22T01:32:02.617Z,14.31
2023-05-22T01:33:07.108Z,14.31
2023-05-22T01:34:11.756Z,14.30
2023-05-22T01:35:17.712Z,14.30
2023-05-22T01:36:24.397Z,14.30
2023-05-22T01:37:27.811Z,14.30
2023-05-22T01:38:31.310Z,14.29
2023-05-22T01:39:36.371Z,14.29
2023-05-22T01:40:39.624Z,14.29
2023-05-22T01:41:42.803Z,14.29
2023-05-22T01:42:47.053Z,14.29
2023-05-22T01:43:50.074Z,14.30
2023-05-22T01:44:52.788Z,14.29
2023-05-22T01:45:55.655Z,14.30
2023-05-22T01:47:00.594Z,14.29
2023-05-22T01:48:04.161Z,14.30
2023-05-22T01:49:09.068Z,14.30
2023-05-22T01:50:12.062Z,14.30
2023-05-22T01:51:25.909Z,14.31
2023-05-22T01:52:35.186Z,14.31
2023-05-22T01:53:47.831Z,14.31
2023-05-22T01:54:52.761Z,14.31
2023-05-22T01:56:05.372Z,14.30
2023-05-22T01:57:26.866Z,14.30
2023-05-22T01:58:41.604Z,14.30
2023-05-22T01:59:45.689Z,14.30
2023-05-22T02:00:51.607Z,14.29
2023-05-22T02:01:55.286Z,14.30
2023-05-22T02:03:01.600Z,14.30
2023-05-22T02:04:05.764Z,14.31
2023-05-22T02:05:11.401Z,14.31
2023-05-22T02:06:14.867Z,14.31
2023-05-22T02:07:19.802Z,14.31
2023-05-22T02:08:23.062Z,14.30
2023-05-22T02:09:28.198Z,14.31
2023-05-22T02:10:31.776Z,14.30
2023-05-22T02:11:35.605Z,14.30
2023-05-22T02:12:39.567Z,14.30
2023-05-22T02:13:42.753Z,14.30
2023-05-22T02:14:45.696Z,14.30
2023-05-22T02:15:49.321Z,14.29
2023-05-22T02:16:52.496Z,14.30
2023-05-22T02:17:55.557Z,14.30
2023-05-22T02:18:58.992Z,14.29
2023-05-22T02:20:01.749Z,14.30
2023-05-22T02:21:08.677Z,14.30
2023-05-22T02:22:13.809Z,14.30
2023-05-22T02:23:16.765Z,14.30
2023-05-22T02:24:19.811Z,14.31
2023-05-22T02:25:22.638Z,14.30
2023-05-22T02:26:25.686Z,14.30
2023-05-22T02:27:29.411Z,14.29
2023-05-22T02:28:33.553Z,14.29
2023-05-22T02:29:36.386Z,14.28
2023-05-22T02:30:39.859Z,14.28
2023-05-22T02:31:43.396Z,14.28
2023-05-22T02:32:46.596Z,14.28
2023-05-22T02:33:49.469Z,14.28
2023-05-22T02:34:54.626Z,14.28
2023-05-22T02:35:57.916Z,14.28
2023-05-22T02:37:03.718Z,14.28
2023-05-22T02:38:07.117Z,14.28
2023-05-22T02:39:10.298Z,14.29
2023-05-22T02:40:13.193Z,14.28
2023-05-22T02:41:16.060Z,14.29
2023-05-22T02:42:19.114Z,14.29
2023-05-22T02:43:21.948Z,14.29
2023-05-22T02:44:24.708Z,14.30
2023-05-22T02:45:27.483Z,14.30
2023-05-22T02:46:30.385Z,14.30
2023-05-22T02:47:33.357Z,14.31
2023-05-22T02:48:36.236Z,14.32
2023-05-22T02:49:38.966Z,14.32
2023-05-22T02:50:41.708Z,14.33
2023-05-22T02:51:47.671Z,14.33
2023-05-22T02:52:50.724Z,14.34
2023-05-22T02:53:53.575Z,14.35
2023-05-22T02:54:56.289Z,14.36
2023-05-22T02:55:59.258Z,14.37
2023-05-22T02:57:02.961Z,14.38
2023-05-22T02:58:06.008Z,14.39
2023-05-22T02:59:08.789Z,14.40
2023-05-22T03:00:12.332Z,14.40
2023-05-22T03:01:15.666Z,14.40
2023-05-22T03:02:18.550Z,14.42
2023-05-22T03:03:21.568Z,14.42
2023-05-22T03:04:24.369Z,14.42
2023-05-22T03:05:27.140Z,14.43
2023-05-22T03:06:30.531Z,14.44
2023-05-22T03:07:34.811Z,14.45
2023-05-22T03:08:41.683Z,14.46
2023-05-22T03:09:44.554Z,14.49
2023-05-22T03:10:48.402Z,14.49
2023-05-22T03:11:51.240Z,14.50
2023-05-22T03:12:54.207Z,14.51
2023-05-22T03:13:57.338Z,14.51
2023-05-22T03:15:00.317Z,14.52
2023-05-22T03:16:03.266Z,14.53
2023-05-22T03:17:06.598Z,14.55
2023-05-22T03:18:09.410Z,14.56
2023-05-22T03:19:16.016Z,14.58
2023-05-22T03:20:19.011Z,14.58
2023-05-22T03:21:21.777Z,14.60
2023-05-22T03:22:24.556Z,14.61
2023-05-22T03:23:27.557Z,14.64
2023-05-22T03:24:30.585Z,14.65
2023-05-22T03:25:33.565Z,14.66
2023-05-22T03:26:37.305Z,14.68
2023-05-22T03:27:42.121Z,14.70
2023-05-22T03:28:45.834Z,14.72
2023-05-22T03:29:48.797Z,14.73
2023-05-22T03:30:52.567Z,14.74
2023-05-22T03:32:03.466Z,14.76
2023-05-22T03:33:06.346Z,14.76
2023-05-22T03:34:09.460Z,14.76
2023-05-22T03:35:15.602Z,14.77
2023-05-22T03:36:18.970Z,14.79
2023-05-22T03:37:21.859Z,14.80
2023-05-22T03:38:24.893Z,14.81
2023-05-22T03:39:28.543Z,14.83
2023-05-22T03:40:35.386Z,14.84
2023-05-22T03:41:38.640Z,14.86
2023-05-22T03:42:41.425Z,14.89
2023-05-22T03:43:45.172Z,14.90
2023-05-22T03:44:50.036Z,14.93
2023-05-22T03:45:53.163Z,14.96
2023-05-22T03:46:56.127Z,14.99
2023-05-22T03:47:59.050Z,15.02
2023-05-22T03:49:01.911Z,15.04
2023-05-22T03:50:04.866Z,15.08
2023-05-22T03:51:07.723Z,15.11
2023-05-22T03:52:10.998Z,15.14
2023-05-22T03:53:13.716Z,15.17
2023-05-22T03:54:16.574Z,15.21
2023-05-22T03:55:19.491Z,15.24
2023-05-22T03:56:22.722Z,15.27
2023-05-22T03:57:25.499Z,15.31
2023-05-22T03:58:28.316Z,15.33
2023-05-22T03:59:31.154Z,15.36
2023-05-22T04:00:34.828Z,15.40
2023-05-22T04:01:39.147Z,15.43
2023-05-22T04:02:45.175Z,15.47
2023-05-22T04:03:48.614Z,15.51
2023-05-22T04:04:51.530Z,15.56
2023-05-22T04:05:54.629Z,15.61
2023-05-22T04:06:58.305Z,15.66
2023-05-22T04:08:01.149Z,15.71
2023-05-22T04:09:04.539Z,15.77
2023-05-22T04:10:07.700Z,15.82
2023-05-22T04:11:11.117Z,15.88
2023-05-22T04:12:13.873Z,15.94
2023-05-22T04:13:18.969Z,16.00
2023-05-22T04:14:21.721Z,16.06
2023-05-22T04:15:24.496Z,16.11
2023-05-22T04:16:27.535Z,16.16
2023-05-22T04:17:33.795Z,16.22
2023-05-22T04:18:36.881Z,16.27
2023-05-22T04:19:39.776Z,16.32
2023-05-22T04:20:45.386Z,16.37
2023-05-22T04:21:48.760Z,16.42
2023-05-22T04:22:54.492Z,16.47
2023-05-22T04:23:57.204Z,16.52
2023-05-22T04:25:00.049Z,16.57
2023-05-22T04:26:03.106Z,16.61
2023-05-22T04:27:06.254Z,16.65
2023-05-22T04:28:09.807Z,16.69
2023-05-22T04:29:14.548Z,16.74
2023-05-22T04:30:18.490Z,16.79
2023-05-22T04:31:23.145Z,16.83
2023-05-22T04:32:26.351Z,16.88
2023-05-22T04:33:30.295Z,16.92
2023-05-22T04:34:33.726Z,16.97
2023-05-22T04:35:36.406Z,17.01
2023-05-22T04:36:40.218Z,17.06
2023-05-22T04:37:45.554Z,17.11
2023-05-22T04:38:48.834Z,17.16
2023-05-22T04:39:53.591Z,17.20
2023-05-22T04:40:56.955Z,17.25
2023-05-22T04:42:05.767Z,17.29
2023-05-22T04:43:08.968Z,17.33
2023-05-22T04:44:11.767Z,17.37
2023-05-22T04:45:14.483Z,17.42
2023-05-22T04:46:17.477Z,17.40
2023-05-22T04:47:20.526Z,17.33
2023-05-22T04:48:23.427Z,17.24
2023-05-22T04:49:26.345Z,17.15
2023-05-22T04:50:32.417Z,17.07
2023-05-22T04:51:35.286Z,17.01
2023-05-22T04:52:38.633Z,16.96
2023-05-22T04:53:41.609Z,16.91
2023-05-22T04:54:46.682Z,16.87
2023-05-22T04:55:49.596Z,16.83
2023-05-22T04:56:52.457Z,16.79
2023-05-22T04:57:56.384Z,16.76
2023-05-22T04:59:00.053Z,16.73
2023-05-22T05:00:04.359Z,16.71
2023-05-22T05:01:09.493Z,16.69
2023-05-22T05:02:13.328Z,16.67
2023-05-22T05:03:16.303Z,16.67
2023-05-22T05:04:19.225Z,16.66
2023-05-22T05:05:22.090Z,16.67
2023-05-22T05:06:25.244Z,16.66
2023-05-22T05:07:29.520Z,16.66
2023-05-22T05:08:33.181Z,16.65
2023-05-22T05:09:36.038Z,16.64
2023-05-22T05:10:38.958Z,16.63
2023-05-22T05:11:41.961Z,16.62
2023-05-22T05:12:45.296Z,16.62
2023-05-22T05:13:48.088Z,16.61
2023-05-22T05:14:51.064Z,16.60
2023-05-22T05:15:54.763Z,16.59
2023-05-22T05:16:59.544Z,16.60
2023-05-22T05:18:02.360Z,16.59
2023-05-22T05:19:05.113Z,16.61
2023-05-22T05:20:08.499Z,16.62
2023-05-22T05:21:11.287Z,16.64
2023-05-22T05:22:14.131Z,16.66
2023-05-22T05:23:17.126Z,16.68
2023-05-22T05:24:19.995Z,16.73
2023-05-22T05:25:24.059Z,16.77
2023-05-22T05:26:27.389Z,16.81
2023-05-22T05:27:30.579Z,16.88
2023-05-22T05:28:33.460Z,16.95
2023-05-22T05:29:36.964Z,17.03
2023-05-22T05:30:45.947Z,17.10
2023-05-22T05:32:04.298Z,17.18
2023-05-22T05:33:25.695Z,17.23
2023-05-22T05:34:37.615Z,17.27
2023-05-22T05:35:46.231Z,17.31
2023-05-22T05:36:49.837Z,17.33
2023-05-22T05:37:53.138Z,17.35
2023-05-22T05:38:58.408Z,17.37
2023-05-22T05:40:01.838Z,17.40
2023-05-22T05:41:06.069Z,17.43
2023-05-22T05:42:09.112Z,17.46
2023-05-22T05:43:15.130Z,17.49
2023-05-22T05:44:18.040Z,17.50
2023-05-22T05:45:21.910Z,17.53
2023-05-22T05:46:24.746Z,17.56
2023-05-22T05:47:29.679Z,17.59
2023-05-22T05:48:33.110Z,17.61
2023-05-22T05:49:36.078Z,17.64
2023-05-22T05:50:39.695Z,17.66
2023-05-22T05:51:43.314Z,17.68
2023-05-22T05:52:47.227Z,17.71
2023-05-22T05:53:52.790Z,17.73
2023-05-22T05:54:55.954Z,17.76
2023-05-22T05:55:59.212Z,17.78
2023-05-22T05:57:03.482Z,17.81
2023-05-22T05:58:06.348Z,17.84
2023-05-22T05:59:32.226Z,17.88
2023-05-22T06:00:55.212Z,17.92
2023-05-22T06:01:58.245Z,17.95
2023-05-22T06:03:03.136Z,17.97
2023-05-22T06:04:19.052Z,18.01
2023-05-22T06:05:23.219Z,18.03
2023-05-22T06:06:30.773Z,18.06
2023-05-22T06:07:58.250Z,18.12
2023-05-22T06:09:01.236Z,18.14
2023-05-22T06:10:07.394Z,18.18
2023-05-22T06:11:18.723Z,18.23
2023-05-22T06:12:29.914Z,18.26
2023-05-22T06:13:32.706Z,18.30
2023-05-22T06:14:35.731Z,18.32
2023-05-22T06:15:38.484Z,18.34
2023-05-22T06:16:41.468Z,18.37
2023-05-22T06:17:44.512Z,18.40
2023-05-22T06:18:49.580Z,18.41
2023-05-22T06:19:52.804Z,18.44
2023-05-22T06:20:58.871Z,18.46
2023-05-22T06:22:01.641Z,18.50
2023-05-22T06:23:05.415Z,18.53
2023-05-22T06:24:08.221Z,18.56
2023-05-22T06:25:11.149Z,18.60
2023-05-22T06:26:13.951Z,18.63
2023-05-22T06:27:17.361Z,18.67
2023-05-22T06:28:20.965Z,18.71
2023-05-22T06:29:24.035Z,18.74
2023-05-22T06:30:39.480Z,18.77
2023-05-22T06:31:44.698Z,18.83
2023-05-22T06:32:48.225Z,18.86
2023-05-22T06:33:53.172Z,18.90
2023-05-22T06:34:56.471Z,18.92
2023-05-22T06:35:59.747Z,18.95
2023-05-22T06:37:03.760Z,18.97
2023-05-22T06:38:09.460Z,19.00
2023-05-22T06:39:15.032Z,19.03
2023-05-22T06:40:43.992Z,19.09
2023-05-22T06:41:55.872Z,19.12
2023-05-22T06:42:59.630Z,19.13
2023-05-22T06:44:13.740Z,19.17
2023-05-22T06:45:17.913Z,19.21
2023-05-22T06:46:28.298Z,19.26
2023-05-22T06:47:35.219Z,19.29
2023-05-22T06:48:38.492Z,19.31
2023-05-22T06:49:46.123Z,19.34
2023-05-22T06:50:49.038Z,19.37
2023-05-22T06:51:51.887Z,19.39
2023-05-22T06:52:54.693Z,19.41
2023-05-22T06:53:57.600Z,19.42
2023-05-22T06:55:05.720Z,19.44
2023-05-22T06:56:09.753Z,19.46
2023-05-22T06:57:30.357Z,19.49
2023-05-22T06:58:34.194Z,19.52
2023-05-22T06:59:38.887Z,19.55
2023-05-22T07:00:41.829Z,19.59
2023-05-22T07:01:50.424Z,19.63
2023-05-22T07:02:57.692Z,19.66
2023-05-22T07:04:06.111Z,19.69
2023-05-22T07:05:13.653Z,19.70
2023-05-22T07:06:26.342Z,19.72
2023-05-22T07:07:29.235Z,19.75
2023-05-22T07:08:32.705Z,19.79
2023-05-22T07:09:35.978Z,19.82
2023-05-22T07:10:40.394Z,19.85
2023-05-22T07:11:44.088Z,19.88
2023-05-22T07:12:47.913Z,19.89
2023-05-22T07:13:51.152Z,19.90
2023-05-22T07:14:54.447Z,19.92
2023-05-22T07:15:58.110Z,19.93
2023-05-22T07:17:01.324Z,19.95
2023-05-22T07:18:09.772Z,19.97
2023-05-22T07:19:14.376Z,20.01
2023-05-22T07:20:17.806Z,20.06
2023-05-22T07:21:27.623Z,20.09
2023-05-22T07:22:31.255Z,20.15
2023-05-22T07:23:34.087Z,20.18
2023-05-22T07:24:36.936Z,20.23
2023-05-22T07:25:39.991Z,20.27
2023-05-22T07:26:46.900Z,20.31
2023-05-22T07:27:50.114Z,20.35
2023-05-22T07:28:53.095Z,20.38
2023-05-22T07:29:56.198Z,20.40
2023-05-22T07:31:00.705Z,20.44
2023-05-22T07:32:03.843Z,20.49
2023-05-22T07:33:07.469Z,20.53
2023-05-22T07:34:11.209Z,20.58
2023-05-22T07:35:14.054Z,20.62
2023-05-22T07:36:18.967Z,20.66
2023-05-22T07:37:22.329Z,20.69
2023-05-22T07:38:25.344Z,20.72
2023-05-22T07:39:33.052Z,20.78
2023-05-22T07:40:36.081Z,20.82
2023-05-22T07:41:38.866Z,20.88
2023-05-22T07:42:42.341Z,20.92
2023-05-22T07:43:45.980Z,20.95
2023-05-22T07:44:50.763Z,20.97
2023-05-22T07:45:54.195Z,21.00
2023-05-22T07:46:59.700Z,21.04
2023-05-22T07:48:04.438Z,21.08
2023-05-22T07:49:09.034Z,21.11
2023-05-22T07:50:12.556Z,21.14
2023-05-22T07:51:16.837Z,21.16
2023-05-22T07:52:21.837Z,21.18
2023-05-22T07:53:24.963Z,21.21
2023-05-22T07:54:31.405Z,21.23
2023-05-22T07:55:34.230Z,21.25
2023-05-22T07:56:40.711Z,21.27
2023-05-22T07:57:44.485Z,21.29
2023-05-22T07:58:53.630Z,21.29
2023-05-22T07:59:56.891Z,21.32
2023-05-22T08:00:59.697Z,21.34
2023-05-22T08:02:02.911Z,21.35
2023-05-22T08:03:06.047Z,21.35
2023-05-22T08:04:09.164Z,21.37
2023-05-22T08:05:12.428Z,21.37
2023-05-22T08:06:16.236Z,21.36
2023-05-22T08:07:18.980Z,21.36
2023-05-22T08:08:21.849Z,21.38
2023-05-22T08:09:24.631Z,21.40
2023-05-22T08:10:30.023Z,21.43
2023-05-22T08:11:42.205Z,21.47
2023-05-22T08:12:45.123Z,21.49
2023-05-22T08:13:47.981Z,21.53
2023-05-22T08:14:50.845Z,21.55
2023-05-22T08:16:00.325Z,21.57
2023-05-22T08:17:04.397Z,21.61
2023-05-22T08:18:07.381Z,21.63
2023-05-22T08:19:10.601Z,21.64
2023-05-22T08:20:13.761Z,21.64
2023-05-22T08:21:16.541Z,21.64
2023-05-22T08:22:19.278Z,21.64
2023-05-22T08:23:22.193Z,21.61
2023-05-22T08:24:28.629Z,21.57
2023-05-22T08:25:31.680Z,21.50
2023-05-22T08:26:34.631Z,21.45
2023-05-22T08:27:37.576Z,21.39
2023-05-22T08:28:44.107Z,21.34
2023-05-22T08:29:46.883Z,21.28
2023-05-22T08:30:50.310Z,21.25
2023-05-22T08:31:54.134Z,21.22
2023-05-22T08:32:57.180Z,21.16
2023-05-22T08:34:02.793Z,21.11
2023-05-22T08:35:06.178Z,21.05
2023-05-22T08:36:09.089Z,21.01
2023-05-22T08:37:14.217Z,20.97
2023-05-22T08:38:17.558Z,20.92
2023-05-22T08:39:20.359Z,20.90
2023-05-22T08:40:24.136Z,20.89
2023-05-22T08:41:27.260Z,20.86
2023-05-22T08:42:30.210Z,20.84
2023-05-22T08:43:33.068Z,20.81
2023-05-22T08:44:35.926Z,20.79
2023-05-22T08:45:42.518Z,20.78
2023-05-22T08:46:46.171Z,20.75
2023-05-22T08:47:53.175Z,20.72
2023-05-22T08:48:57.273Z,20.70
2023-05-22T08:50:00.195Z,20.67
2023-05-22T08:51:03.926Z,20.65
2023-05-22T08:52:27.061Z,20.63
2023-05-22T08:53:33.474Z,20.59
2023-05-22T08:54:36.796Z,20.57
2023-05-22T08:55:39.786Z,20.56
2023-05-22T08:56:52.894Z,20.54
2023-05-22T08:57:59.771Z,20.51
2023-05-22T08:59:03.453Z,20.49
2023-05-22T09:00:07.777Z,20.48
2023-05-22T09:01:11.036Z,20.48
2023-05-22T09:02:14.307Z,20.47
2023-05-22T09:03:18.495Z,20.50
2023-05-22T09:04:23.732Z,20.51
2023-05-22T09:05:26.611Z,20.50
2023-05-22T09:06:29.848Z,20.52
2023-05-22T09:07:32.657Z,20.55
2023-05-22T09:08:35.575Z,20.55
2023-05-22T09:09:41.653Z,20.56
2023-05-22T09:10:44.922Z,20.56
2023-05-22T09:11:47.747Z,20.56
2023-05-22T09:13:04.296Z,20.59
2023-05-22T09:14:08.530Z,20.58
2023-05-22T09:15:11.892Z,20.57
2023-05-22T09:16:15.185Z,20.55
2023-05-22T09:17:18.108Z,20.54
2023-05-22T09:18:22.115Z,20.53
2023-05-22T09:19:24.884Z,20.56
2023-05-22T09:20:27.687Z,20.55
2023-05-22T09:21:31.354Z,20.56
2023-05-22T09:22:38.295Z,20.56
2023-05-22T09:23:41.841Z,20.54
2023-05-22T09:24:45.876Z,20.53
2023-05-22T09:25:48.707Z,20.53
2023-05-22T09:26:53.058Z,20.50
2023-05-22T09:27:55.889Z,20.44
2023-05-22T09:28:59.399Z,20.40
2023-05-22T09:30:02.299Z,20.37
2023-05-22T09:31:06.355Z,20.35
2023-05-22T09:32:13.520Z,20.29
2023-05-22T09:33:17.034Z,20.23
2023-05-22T09:34:19.821Z,20.17
2023-05-22T09:35:25.708Z,20.12
2023-05-22T09:36:34.967Z,20.08
2023-05-22T09:37:37.768Z,20.05
2023-05-22T09:38:40.570Z,20.03
2023-05-22T09:39:46.470Z,20.03
2023-05-22T09:40:52.825Z,20.04
2023-05-22T09:42:01.164Z,20.07
2023-05-22T09:43:07.723Z,20.10
2023-05-22T09:44:14.511Z,20.09
2023-05-22T09:45:20.068Z,20.08
2023-05-22T09:46:22.812Z,20.06
2023-05-22T09:47:25.670Z,20.04
2023-05-22T09:48:28.578Z,20.02
2023-05-22T09:49:31.505Z,20.01
2023-05-22T09:50:34.567Z,19.98
2023-05-22T09:51:40.169Z,19.94
2023-05-22T09:52:44.483Z,19.91
2023-05-22T09:53:48.853Z,19.89
2023-05-22T09:54:55.565Z,19.86
2023-05-22T09:56:00.014Z,19.82
2023-05-22T09:57:05.530Z,19.79
2023-05-22T09:58:10.155Z,19.78
2023-05-22T09:59:13.977Z,19.78
2023-05-22T10:00:18.572Z,19.80
2023-05-22T10:01:23.074Z,19.84
2023-05-22T10:02:26.915Z,19.88
2023-05-22T10:03:31.513Z,19.95
2023-05-22T10:04:34.789Z,19.99
2023-05-22T10:05:40.918Z,20.00
2023-05-22T10:06:48.742Z,19.99
2023-05-22T10:07:52.132Z,19.96
2023-05-22T10:08:59.659Z,19.95
2023-05-22T10:10:05.185Z,19.96
2023-05-22T10:11:08.525Z,19.95
2023-05-22T10:12:16.267Z,19.94
2023-05-22T10:13:19.876Z,19.91
2023-05-22T10:14:23.687Z,19.89
2023-05-22T10:15:26.753Z,19.87
2023-05-22T10:16:30.270Z,19.87
2023-05-22T10:17:34.193Z,19.87
2023-05-22T10:18:38.043Z,19.85
2023-05-22T10:19:42.811Z,19.83
2023-05-22T10:20:47.144Z,19.82
2023-05-22T10:21:50.339Z,19.82
2023-05-22T10:22:53.736Z,19.84
2023-05-22T10:23:57.887Z,19.89
2023-05-22T10:25:01.342Z,19.95
2023-05-22T10:26:04.536Z,20.01
2023-05-22T10:27:07.601Z,20.07
2023-05-22T10:28:10.793Z,20.12
2023-05-22T10:29:20.652Z,20.14
2023-05-22T10:30:34.833Z,20.15
2023-05-22T10:32:18.047Z,20.14
2023-05-22T10:33:36.651Z,20.14
2023-05-22T10:34:50.709Z,20.16
2023-05-22T10:36:02.716Z,20.19
2023-05-22T10:37:17.342Z,20.20
2023-05-22T10:38:47.769Z,20.19
2023-05-22T10:40:00.936Z,20.18
2023-05-22T10:41:04.172Z,20.20
2023-05-22T10:42:12.015Z,20.22
2023-05-22T10:43:14.892Z,20.21
2023-05-22T10:44:18.140Z,20.21
2023-05-22T10:45:20.955Z,20.19
2023-05-22T10:46:23.876Z,20.21
2023-05-22T10:47:26.816Z,20.22
2023-05-22T10:48:30.492Z,20.25
2023-05-22T10:49:33.272Z,20.28
2023-05-22T10:50:36.296Z,20.26
2023-05-22T10:51:39.194Z,20.25
2023-05-22T10:52:41.982Z,20.24
2023-05-22T10:53:47.790Z,20.23
2023-05-22T10:54:54.468Z,20.21
2023-05-22T10:55:58.362Z,20.20
2023-05-22T10:57:14.399Z,20.19
2023-05-22T10:58:17.877Z,20.19
2023-05-22T10:59:33.529Z,20.19
2023-05-22T11:00:37.759Z,20.22
2023-05-22T11:01:40.884Z,20.24
2023-05-22T11:03:10.039Z,20.26
2023-05-22T11:04:24.903Z,20.29
2023-05-22T11:05:36.381Z,20.29
2023-05-22T11:06:43.291Z,20.30
2023-05-22T11:07:46.114Z,20.29
2023-05-22T11:08:49.739Z,20.28
2023-05-22T11:10:00.141Z,20.29
2023-05-22T11:11:11.153Z,20.31
2023-05-22T11:12:14.156Z,20.37
2023-05-22T11:13:17.616Z,20.44
2023-05-22T11:14:20.699Z,20.54
2023-05-22T11:15:30.670Z,20.78
2023-05-22T11:16:34.047Z,21.16
2023-05-22T11:17:39.785Z,21.53
2023-05-22T11:18:44.080Z,21.89
2023-05-22T11:19:49.121Z,22.20
2023-05-22T11:20:53.676Z,22.46
2023-05-22T11:22:00.236Z,22.68
2023-05-22T11:23:10.230Z,22.88
2023-05-22T11:24:15.762Z,23.05
2023-05-22T11:25:19.947Z,23.18
2023-05-22T11:26:26.294Z,23.28
2023-05-22T11:27:31.136Z,23.37
2023-05-22T11:28:33.913Z,23.45
2023-05-22T11:29:38.425Z,23.56
2023-05-22T11:30:41.792Z,23.69
2023-05-22T11:31:46.322Z,23.84
2023-05-22T11:32:49.123Z,23.98
2023-05-22T11:33:51.969Z,24.14
2023-05-22T11:34:56.827Z,24.30
2023-05-22T11:36:00.066Z,24.46
2023-05-22T11:37:02.873Z,24.62
2023-05-22T11:38:07.291Z,24.75
2023-05-22T11:39:14.663Z,24.88
2023-05-22T11:40:19.154Z,25.02
2023-05-22T11:41:22.056Z,25.16
2023-05-22T11:42:25.225Z,25.32
2023-05-22T11:43:28.624Z,25.50
2023-05-22T11:44:31.375Z,25.70
2023-05-22T11:45:37.101Z,25.88
2023-05-22T11:46:40.329Z,26.08
2023-05-22T11:47:43.686Z,26.27
2023-05-22T11:48:47.495Z,26.46
2023-05-22T11:49:50.345Z,26.65
2023-05-22T11:50:53.428Z,26.81
2023-05-22T11:51:56.235Z,26.95
2023-05-22T11:52:59.438Z,27.10
2023-05-22T11:54:02.566Z,27.22
2023-05-22T11:55:08.558Z,27.35
2023-05-22T11:56:11.382Z,27.52
2023-05-22T11:57:14.745Z,27.67
2023-05-22T11:58:22.359Z,27.81
2023-05-22T11:59:25.112Z,27.97
2023-05-22T12:00:29.362Z,28.12
2023-05-22T12:01:32.502Z,28.27
2023-05-22T12:02:35.983Z,28.41
2023-05-22T12:03:38.940Z,28.55
2023-05-22T12:04:42.135Z,28.67
2023-05-22T12:05:45.637Z,28.75
2023-05-22T12:06:48.468Z,28.81
2023-05-22T12:07:51.534Z,28.90
2023-05-22T12:08:54.423Z,29.06
2023-05-22T12:09:57.926Z,29.19
2023-05-22T12:11:00.810Z,29.24
2023-05-22T12:12:03.655Z,29.30
2023-05-22T12:13:06.413Z,29.43
2023-05-22T12:14:11.472Z,29.52
2023-05-22T12:15:14.314Z,29.55
2023-05-22T12:16:21.948Z,29.61
2023-05-22T12:17:24.977Z,29.70
2023-05-22T12:18:35.443Z,29.82
2023-05-22T12:19:39.950Z,29.97
2023-05-22T12:20:43.786Z,30.12
2023-05-22T12:21:46.584Z,30.22
2023-05-22T12:22:49.460Z,30.38
2023-05-22T12:23:52.401Z,30.52
2023-05-22T12:24:55.680Z,30.64
2023-05-22T12:25:59.232Z,30.81
2023-05-22T12:27:01.969Z,30.92
2023-05-22T12:28:07.802Z,31.03
2023-05-22T12:29:10.507Z,31.20
2023-05-22T12:30:13.656Z,31.40
2023-05-22T12:31:23.086Z,31.63
2023-05-22T12:32:27.062Z,31.85
2023-05-22T12:33:30.168Z,32.13
2023-05-22T12:34:34.250Z,32.36
2023-05-22T12:35:38.279Z,32.65
2023-05-22T12:36:42.115Z,32.84
2023-05-22T12:37:48.788Z,33.01
2023-05-22T12:38:55.148Z,33.29
2023-05-22T12:39:58.629Z,33.64
2023-05-22T12:41:01.624Z,33.91
2023-05-22T12:42:04.473Z,34.17
2023-05-22T12:43:07.333Z,34.44
2023-05-22T12:44:10.449Z,34.65
2023-05-22T12:45:14.011Z,34.81
2023-05-22T12:46:16.948Z,34.93
2023-05-22T12:47:20.205Z,35.08
2023-05-22T12:48:23.125Z,35.26
2023-05-22T12:49:25.955Z,35.48
2023-05-22T12:50:28.740Z,35.77
2023-05-22T12:51:32.139Z,35.96
2023-05-22T12:52:35.939Z,36.05
2023-05-22T12:53:38.742Z,36.16
2023-05-22T12:54:41.713Z,36.20
2023-05-22T12:55:44.571Z,36.32
2023-05-22T12:56:47.282Z,36.35
2023-05-22T12:57:50.076Z,36.36
2023-05-22T12:58:52.957Z,36.47
2023-05-22T12:59:55.730Z,36.39
2023-05-22T13:00:58.603Z,36.38
2023-05-22T13:02:03.114Z,36.32
2023-05-22T13:03:06.584Z,36.23
2023-05-22T13:04:09.789Z,36.19
2023-05-22T13:05:12.633Z,36.20
2023-05-22T13:06:15.697Z,36.07
2023-05-22T13:07:18.390Z,36.08
2023-05-22T13:08:22.311Z,35.96
2023-05-22T13:09:25.082Z,35.84
2023-05-22T13:10:28.139Z,35.75
2023-05-22T13:11:31.125Z,35.71
2023-05-22T13:12:33.926Z,35.70
2023-05-22T13:13:36.598Z,35.66
2023-05-22T13:14:40.540Z,35.69
2023-05-22T13:15:43.659Z,35.61
2023-05-22T13:16:46.854Z,35.62
2023-05-22T13:17:49.712Z,35.71
2023-05-22T13:18:52.583Z,35.67
2023-05-22T13:19:56.071Z,35.65
2023-05-22T13:21:00.147Z,35.63
2023-05-22T13:22:03.040Z,35.76
2023-05-22T13:23:06.009Z,35.82
2023-05-22T13:24:08.767Z,35.83
2023-05-22T13:25:13.398Z,35.84
2023-05-22T13:26:16.324Z,35.79
2023-05-22T13:27:19.284Z,35.73
2023-05-22T13:28:22.076Z,35.61
2023-05-22T13:29:24.822Z,35.55
2023-05-22T13:30:28.544Z,35.47
2023-05-22T13:31:37.113Z,35.36
2023-05-22T13:32:40.147Z,35.29
2023-05-22T13:33:43.050Z,35.19
2023-05-22T13:34:45.970Z,35.24
2023-05-22T13:35:49.018Z,35.21
2023-05-22T13:36:51.796Z,35.19
2023-05-22T13:37:54.657Z,35.28
2023-05-22T13:38:57.430Z,35.37
2023-05-22T13:40:00.569Z,35.46
2023-05-22T13:41:03.374Z,35.52
2023-05-22T13:42:06.567Z,35.63
2023-05-22T13:43:09.575Z,35.80
2023-05-22T13:44:12.640Z,35.97
2023-05-22T13:45:15.353Z,36.15
2023-05-22T13:46:18.354Z,36.24
2023-05-22T13:47:23.104Z,36.29
2023-05-22T13:48:26.188Z,36.19
2023-05-22T13:49:29.084Z,36.11
2023-05-22T13:50:32.089Z,36.18
2023-05-22T13:51:34.923Z,36.24
2023-05-22T13:52:37.994Z,36.30
2023-05-22T13:53:41.109Z,36.42
2023-05-22T13:54:43.918Z,36.49
2023-05-22T13:55:46.669Z,36.57